K-storm — V2DV8 — position and weather

sailwx.info

Track history (hours):
 
Tides and Currents Weather Stations Pressure Air Temp Water Temp Dewpoint Dewpoint Depression Visibility Wind Speed Wind Dir Waves Ship Positions

K-storm

Last reported at 2018-Apr-12 19:57 UTC. Time now 2018-Apr-20 20:29 UTC.
Position N 25°31' W 079°40'.
Warning: this ship's position is 8 days out of date.

Length 139 m; draft 6.2 m.

Type: Ship. MMSI: 305350000.

Date/timePositionNaut miles runAvg speedWind from/ knotsBaromVisibWave heightAir tempDewpointWater temp
2018-Apr-12 19:57N 25°31' W 079°40'613.8
2018-Apr-12 19:30N 25°37' W 079°41'713.7
2018-Apr-12 19:00N 25°43' W 079°41'713.7
2018-Apr-12 18:30N 25°50' W 079°41'713.2
2018-Apr-12 18:00N 25°55' W 079°47'714.5
2018-Apr-12 17:30N 25°59' W 079°54'815.0
2018-Apr-12 17:00N 26°03' W 080°00'612.1
2018-Apr-12 16:30N 26°06' W 080°06'2 3.5
2018-Apr-12 16:00N 26°04' W 080°07'0 0.0
2018-Apr-12 15:30N 26°04' W 080°07'0 0.0
2018-Apr-12 15:00N 26°04' W 080°07'0 0.0
2018-Apr-12 14:30N 26°04' W 080°07'0 0.0
2018-Apr-12 14:00N 26°04' W 080°07'0 0.0
2018-Apr-12 13:30N 26°04' W 080°07'0 0.0
2018-Apr-12 13:00N 26°04' W 080°07'0 0.0
2018-Apr-12 12:30N 26°04' W 080°07'0 0.0
2018-Apr-12 12:00N 26°04' W 080°07'0 0.0
2018-Apr-12 11:30N 26°04' W 080°07'0 0.0
2018-Apr-12 11:00N 26°04' W 080°07'0 0.0
2018-Apr-12 10:30N 26°04' W 080°07'0 0.0
2018-Apr-12 10:00N 26°04' W 080°07'0 0.0
2018-Apr-12 09:30N 26°04' W 080°07'0 0.0
2018-Apr-12 08:59N 26°04' W 080°07'0 0.0
2018-Apr-12 08:28N 26°04' W 080°07'0 0.0
2018-Apr-12 07:58N 26°04' W 080°07'0 0.0
2018-Apr-12 07:28N 26°04' W 080°07'0 0.0
2018-Apr-12 06:58N 26°04' W 080°07'0 0.0
2018-Apr-12 06:27N 26°04' W 080°07'0 0.0
2018-Apr-12 06:00N 26°04' W 080°07'0 0.0
2018-Apr-12 05:30N 26°04' W 080°07'0 0.1
2018-Apr-12 05:00N 26°04' W 080°07'0 0.0
2018-Apr-12 04:30N 26°04' W 080°07'1 2.6
2018-Apr-12 04:00N 26°05' W 080°07'4 7.4
2018-Apr-12 03:30N 26°07' W 080°03'1 2.0
2018-Apr-12 03:00N 26°08' W 080°05'0 0.1
2018-Apr-12 02:30N 26°08' W 080°04'0 0.0
2018-Apr-12 01:59N 26°08' W 080°04'0 0.0
2018-Apr-12 01:29N 26°08' W 080°04'0 0.0
2018-Apr-12 00:59N 26°08' W 080°04'0 0.0
2018-Apr-12 00:29N 26°08' W 080°05'0 0.0
2018-Apr-11 23:59N 26°08' W 080°05'0 0.0
2018-Apr-11 23:28N 26°08' W 080°05'0 0.0
2018-Apr-11 22:58N 26°08' W 080°05'0 0.0
2018-Apr-11 22:28N 26°08' W 080°05'0 0.0
2018-Apr-11 21:58N 26°08' W 080°05'0 0.0
2018-Apr-11 21:30N 26°08' W 080°05'0 0.0
2018-Apr-11 21:00N 26°08' W 080°05'0 0.0
2018-Apr-11 20:30N 26°08' W 080°05'0 0.0
2018-Apr-11 20:00N 26°08' W 080°05'0 0.0
2018-Apr-11 19:30N 26°08' W 080°05'0 0.0
2018-Apr-11 18:59N 26°08' W 080°05'0 0.1
2018-Apr-11 18:29N 26°08' W 080°05'0 0.2
2018-Apr-11 17:59N 26°08' W 080°04'0 0.1
2018-Apr-11 17:29N 26°08' W 080°04'0 0.0
2018-Apr-11 16:58N 26°08' W 080°04'0 0.0
2018-Apr-11 16:28N 26°08' W 080°04'0 0.0
2018-Apr-11 15:58N 26°08' W 080°04'0 0.0
2018-Apr-11 15:28N 26°08' W 080°04'0 0.0
2018-Apr-11 14:58N 26°08' W 080°04'0 0.1
2018-Apr-11 14:30N 26°08' W 080°04'0 0.0
2018-Apr-11 14:00N 26°08' W 080°04'0 0.1
2018-Apr-11 13:30N 26°08' W 080°04'0 0.1
2018-Apr-11 12:54N 26°08' W 080°04'0 0.0
2018-Apr-11 12:23N 26°08' W 080°04'0 0.0
2018-Apr-11 11:59N 26°08' W 080°04'0 0.0
2018-Apr-11 11:29N 26°08' W 080°04'0 0.0
2018-Apr-11 10:59N 26°08' W 080°04'0 0.0
2018-Apr-11 10:29N 26°08' W 080°04'0 0.0
2018-Apr-11 09:58N 26°08' W 080°04'0 0.0
2018-Apr-11 09:28N 26°08' W 080°04'0 0.0
2018-Apr-11 08:58N 26°08' W 080°04'0 0.0
2018-Apr-11 08:28N 26°08' W 080°04'0 0.0
2018-Apr-11 08:01N 26°08' W 080°04'0 0.0
2018-Apr-11 07:30N 26°08' W 080°04'0 0.0
2018-Apr-11 07:00N 26°08' W 080°04'0 0.0
2018-Apr-11 06:27N 26°08' W 080°04'0 0.1
2018-Apr-11 06:00N 26°08' W 080°04'0 0.0
2018-Apr-11 05:30N 26°08' W 080°04'0 0.0
2018-Apr-11 04:59N 26°08' W 080°04'0 0.0
2018-Apr-11 04:29N 26°08' W 080°04'0 0.0
2018-Apr-11 04:01N 26°08' W 080°05'0 0.0
2018-Apr-11 03:29N 26°08' W 080°05'0 0.1
2018-Apr-11 02:58N 26°08' W 080°05'0 0.0
2018-Apr-11 02:28N 26°08' W 080°05'0 0.0
2018-Apr-11 01:58N 26°08' W 080°05'0 0.0
2018-Apr-11 01:28N 26°08' W 080°05'0 0.0
2018-Apr-11 01:01N 26°08' W 080°04'0 0.0
2018-Apr-11 00:30N 26°08' W 080°04'0 0.0
2018-Apr-11 00:00N 26°08' W 080°04'0 0.0
2018-Apr-10 23:30N 26°08' W 080°04'0 0.0
2018-Apr-10 23:00N 26°08' W 080°05'0 0.1
2018-Apr-10 22:29N 26°08' W 080°05'0 0.0
2018-Apr-10 21:59N 26°08' W 080°05'0 0.1
2018-Apr-10 21:29N 26°08' W 080°05'0 0.6
2018-Apr-10 20:59N 26°07' W 080°04'0 0.8
2018-Apr-10 20:29N 26°08' W 080°05'0 0.1
2018-Apr-10 19:59N 26°08' W 080°05'0 0.0
2018-Apr-10 19:29N 26°08' W 080°05'0 0.0
2018-Apr-10 18:58N 26°08' W 080°05'0 0.0
2018-Apr-10 18:28N 26°08' W 080°05'0 0.0
2018-Apr-10 17:58N 26°08' W 080°05'0 0.0
2018-Apr-10 17:28N 26°08' W 080°05'0 0.0
2018-Apr-10 16:58N 26°08' W 080°05'0 0.0
2018-Apr-10 16:30N 26°08' W 080°04'0 0.1
2018-Apr-10 16:00N 26°08' W 080°04'3 6.4
2018-Apr-10 15:31N 26°06' W 080°07'2 3.0
2018-Apr-10 14:59N 26°04' W 080°07'0 0.0
2018-Apr-10 14:29N 26°04' W 080°07'0 0.0
2018-Apr-10 13:59N 26°04' W 080°07'0 0.0
2018-Apr-10 13:29N 26°04' W 080°07'0 0.0
2018-Apr-10 12:58N 26°04' W 080°07'0 0.0
2018-Apr-10 12:28N 26°04' W 080°07'0 0.0
2018-Apr-10 11:58N 26°04' W 080°07'0 0.0
2018-Apr-10 11:28N 26°04' W 080°07'0 0.0
2018-Apr-10 11:01N 26°04' W 080°07'0 0.0
2018-Apr-10 10:30N 26°04' W 080°07'0 0.0
2018-Apr-10 10:00N 26°04' W 080°07'0 0.0
2018-Apr-10 09:30N 26°04' W 080°07'0 0.0
2018-Apr-10 09:00N 26°04' W 080°07'0 0.0
2018-Apr-10 08:29N 26°04' W 080°07'0 0.0
2018-Apr-10 07:59N 26°04' W 080°07'0 0.0
2018-Apr-10 07:29N 26°04' W 080°07'0 0.0
2018-Apr-10 06:59N 26°04' W 080°07'0 0.0
2018-Apr-10 06:29N 26°04' W 080°07'0 0.1
2018-Apr-10 05:58N 26°04' W 080°07'0 0.0
2018-Apr-10 05:28N 26°04' W 080°07'0 0.0
2018-Apr-10 04:58N 26°04' W 080°07'0 0.0
2018-Apr-10 04:28N 26°04' W 080°07'0 0.0
2018-Apr-10 04:01N 26°04' W 080°07'0 0.0
2018-Apr-10 03:30N 26°04' W 080°07'1 1.7
2018-Apr-10 03:00N 26°05' W 080°07'3 6.6
2018-Apr-10 02:30N 26°06' W 080°04'4 7.3
2018-Apr-10 02:00N 26°05' W 079°60'714.9
2018-Apr-10 01:30N 26°00' W 079°53'815.0
2018-Apr-10 01:00N 25°55' W 079°47'714.4
2018-Apr-10 00:30N 25°50' W 079°41'815.9
2018-Apr-10 00:00N 25°42' W 079°41'816.5
2018-Apr-09 23:30N 25°34' W 079°40'917.2
2018-Apr-09 23:00N 25°25' W 079°40'1018.7
2018-Apr-09 22:29N 25°16' W 079°39'  
2018-Apr-04 03:23N 25°21' W 079°40'615.5
2018-Apr-04 02:59N 25°27' W 079°40'715.3
2018-Apr-04 02:30N 25°34' W 079°40'815.2
2018-Apr-04 02:00N 25°42' W 079°41'713.9
2018-Apr-04 01:31N 25°49' W 079°42'713.5
2018-Apr-04 01:00N 25°54' W 079°46'714.0
2018-Apr-04 00:30N 25°59' W 079°52'714.2
2018-Apr-04 00:00N 26°02' W 079°59'612.7
2018-Apr-03 23:31N 26°06' W 080°05'2 4.2
2018-Apr-03 22:59N 26°04' W 080°07'0 0.0
2018-Apr-03 22:28N 26°04' W 080°07'0 0.0
2018-Apr-03 21:58N 26°04' W 080°07'0 0.0
2018-Apr-03 21:28N 26°04' W 080°07'0 0.0
2018-Apr-03 20:58N 26°04' W 080°07'0 0.0
2018-Apr-03 20:30N 26°04' W 080°07'0 0.0
2018-Apr-03 20:00N 26°04' W 080°07'0 0.0
2018-Apr-03 19:30N 26°04' W 080°07'0 0.0
2018-Apr-03 19:00N 26°04' W 080°07'0 0.0
2018-Apr-03 18:30N 26°04' W 080°07'0 0.0
2018-Apr-03 17:59N 26°04' W 080°07'0 0.0
2018-Apr-03 17:29N 26°04' W 080°07'0 0.0
2018-Apr-03 16:59N 26°04' W 080°07'0 0.0
2018-Apr-03 16:29N 26°04' W 080°07'0 0.0
2018-Apr-03 15:58N 26°04' W 080°07'0 0.0
2018-Apr-03 15:28N 26°04' W 080°07'0 0.0
2018-Apr-03 14:58N 26°04' W 080°07'0 0.0
2018-Apr-03 14:28N 26°04' W 080°07'0 0.0
2018-Apr-03 13:58N 26°04' W 080°07'0 0.0
2018-Apr-03 13:30N 26°04' W 080°07'0 0.0
2018-Apr-03 13:00N 26°04' W 080°07'0 0.0
2018-Apr-03 12:30N 26°04' W 080°07'0 0.0
2018-Apr-03 12:00N 26°04' W 080°07'0 0.0
2018-Apr-03 11:30N 26°04' W 080°07'0 0.0
2018-Apr-03 10:59N 26°04' W 080°07'0 0.0
2018-Apr-03 10:29N 26°04' W 080°07'0 0.0
2018-Apr-03 09:59N 26°04' W 080°07'0 0.0
2018-Apr-03 09:29N 26°04' W 080°07'0 0.0
2018-Apr-03 08:58N 26°04' W 080°07'0 0.0
2018-Apr-03 08:28N 26°04' W 080°07'0 0.0
2018-Apr-03 07:58N 26°04' W 080°07'0 0.0
2018-Apr-03 07:28N 26°04' W 080°07'0 0.0
2018-Apr-03 06:58N 26°04' W 080°07'0 0.0
2018-Apr-03 06:30N 26°04' W 080°07'0 0.0
2018-Apr-03 06:00N 26°04' W 080°07'0 0.0
2018-Apr-03 05:30N 26°04' W 080°07'0 0.0
2018-Apr-03 05:00N 26°04' W 080°07'0 0.0
2018-Apr-03 04:29N 26°04' W 080°07'0 0.0
2018-Apr-03 03:59N 26°04' W 080°07'0 0.0
2018-Apr-03 03:29N 26°04' W 080°07'0 0.0
2018-Apr-03 02:59N 26°04' W 080°07'0 0.2
2018-Apr-03 02:31N 26°04' W 080°07'2 5.0
2018-Apr-03 02:00N 26°06' W 080°05'4 8.4
2018-Apr-03 01:30N 26°05' W 079°60'5 9.4
2018-Apr-03 01:01N 26°02' W 079°56'815.8
2018-Apr-03 00:31N 25°57' W 079°49'815.5
2018-Apr-03 00:00N 25°52' W 079°43'815.2
2018-Apr-02 23:30N 25°45' W 079°41'816.1
2018-Apr-02 23:00N 25°37' W 079°41'816.1
2018-Apr-02 22:30N 25°28' W 079°40'  
Track history (hours):
 
Tides and Currents Weather Stations Pressure Air Temp Water Temp Dewpoint Dewpoint Depression Visibility Wind Speed Wind Dir Waves Ship Positions

K-storm

Last reported at 2018-Apr-12 19:57 UTC. Time now 2018-Apr-20 20:29 UTC.
Position N 25°31' W 079°40'.
Warning: this ship's position is 8 days out of date.

Length 139 m; draft 6.2 m.

Type: Ship. MMSI: 305350000.

Date/timePositionNaut miles runAvg speedWind from/ knotsBaromVisibWave heightAir tempDewpointWater temp
2018-Apr-12 19:57N 25°31' W 079°40'613.8
2018-Apr-12 19:30N 25°37' W 079°41'713.7
2018-Apr-12 19:00N 25°43' W 079°41'713.7
2018-Apr-12 18:30N 25°50' W 079°41'713.2
2018-Apr-12 18:00N 25°55' W 079°47'714.5
2018-Apr-12 17:30N 25°59' W 079°54'815.0
2018-Apr-12 17:00N 26°03' W 080°00'612.1
2018-Apr-12 16:30N 26°06' W 080°06'2 3.5
2018-Apr-12 16:00N 26°04' W 080°07'0 0.0
2018-Apr-12 15:30N 26°04' W 080°07'0 0.0
2018-Apr-12 15:00N 26°04' W 080°07'0 0.0
2018-Apr-12 14:30N 26°04' W 080°07'0 0.0
2018-Apr-12 14:00N 26°04' W 080°07'0 0.0
2018-Apr-12 13:30N 26°04' W 080°07'0 0.0
2018-Apr-12 13:00N 26°04' W 080°07'0 0.0
2018-Apr-12 12:30N 26°04' W 080°07'0 0.0
2018-Apr-12 12:00N 26°04' W 080°07'0 0.0
2018-Apr-12 11:30N 26°04' W 080°07'0 0.0
2018-Apr-12 11:00N 26°04' W 080°07'0 0.0
2018-Apr-12 10:30N 26°04' W 080°07'0 0.0
2018-Apr-12 10:00N 26°04' W 080°07'0 0.0
2018-Apr-12 09:30N 26°04' W 080°07'0 0.0
2018-Apr-12 08:59N 26°04' W 080°07'0 0.0
2018-Apr-12 08:28N 26°04' W 080°07'0 0.0
2018-Apr-12 07:58N 26°04' W 080°07'0 0.0
2018-Apr-12 07:28N 26°04' W 080°07'0 0.0
2018-Apr-12 06:58N 26°04' W 080°07'0 0.0
2018-Apr-12 06:27N 26°04' W 080°07'0 0.0
2018-Apr-12 06:00N 26°04' W 080°07'0 0.0
2018-Apr-12 05:30N 26°04' W 080°07'0 0.1
2018-Apr-12 05:00N 26°04' W 080°07'0 0.0
2018-Apr-12 04:30N 26°04' W 080°07'1 2.6
2018-Apr-12 04:00N 26°05' W 080°07'4 7.4
2018-Apr-12 03:30N 26°07' W 080°03'1 2.0
2018-Apr-12 03:00N 26°08' W 080°05'0 0.1
2018-Apr-12 02:30N 26°08' W 080°04'0 0.0
2018-Apr-12 01:59N 26°08' W 080°04'0 0.0
2018-Apr-12 01:29N 26°08' W 080°04'0 0.0
2018-Apr-12 00:59N 26°08' W 080°04'0 0.0
2018-Apr-12 00:29N 26°08' W 080°05'0 0.0
2018-Apr-11 23:59N 26°08' W 080°05'0 0.0
2018-Apr-11 23:28N 26°08' W 080°05'0 0.0
2018-Apr-11 22:58N 26°08' W 080°05'0 0.0
2018-Apr-11 22:28N 26°08' W 080°05'0 0.0
2018-Apr-11 21:58N 26°08' W 080°05'0 0.0
2018-Apr-11 21:30N 26°08' W 080°05'0 0.0
2018-Apr-11 21:00N 26°08' W 080°05'0 0.0
2018-Apr-11 20:30N 26°08' W 080°05'0 0.0
2018-Apr-11 20:00N 26°08' W 080°05'0 0.0
2018-Apr-11 19:30N 26°08' W 080°05'0 0.0
2018-Apr-11 18:59N 26°08' W 080°05'0 0.1
2018-Apr-11 18:29N 26°08' W 080°05'0 0.2
2018-Apr-11 17:59N 26°08' W 080°04'0 0.1
2018-Apr-11 17:29N 26°08' W 080°04'0 0.0
2018-Apr-11 16:58N 26°08' W 080°04'0 0.0
2018-Apr-11 16:28N 26°08' W 080°04'0 0.0
2018-Apr-11 15:58N 26°08' W 080°04'0 0.0
2018-Apr-11 15:28N 26°08' W 080°04'0 0.0
2018-Apr-11 14:58N 26°08' W 080°04'0 0.1
2018-Apr-11 14:30N 26°08' W 080°04'0 0.0
2018-Apr-11 14:00N 26°08' W 080°04'0 0.1
2018-Apr-11 13:30N 26°08' W 080°04'0 0.1
2018-Apr-11 12:54N 26°08' W 080°04'0 0.0
2018-Apr-11 12:23N 26°08' W 080°04'0 0.0
2018-Apr-11 11:59N 26°08' W 080°04'0 0.0
2018-Apr-11 11:29N 26°08' W 080°04'0 0.0
2018-Apr-11 10:59N 26°08' W 080°04'0 0.0
2018-Apr-11 10:29N 26°08' W 080°04'0 0.0
2018-Apr-11 09:58N 26°08' W 080°04'0 0.0
2018-Apr-11 09:28N 26°08' W 080°04'0 0.0
2018-Apr-11 08:58N 26°08' W 080°04'0 0.0
2018-Apr-11 08:28N 26°08' W 080°04'0 0.0
2018-Apr-11 08:01N 26°08' W 080°04'0 0.0
2018-Apr-11 07:30N 26°08' W 080°04'0 0.0
2018-Apr-11 07:00N 26°08' W 080°04'0 0.0
2018-Apr-11 06:27N 26°08' W 080°04'0 0.1
2018-Apr-11 06:00N 26°08' W 080°04'0 0.0
2018-Apr-11 05:30N 26°08' W 080°04'0 0.0
2018-Apr-11 04:59N 26°08' W 080°04'0 0.0
2018-Apr-11 04:29N 26°08' W 080°04'0 0.0
2018-Apr-11 04:01N 26°08' W 080°05'0 0.0
2018-Apr-11 03:29N 26°08' W 080°05'0 0.1
2018-Apr-11 02:58N 26°08' W 080°05'0 0.0
2018-Apr-11 02:28N 26°08' W 080°05'0 0.0
2018-Apr-11 01:58N 26°08' W 080°05'0 0.0
2018-Apr-11 01:28N 26°08' W 080°05'0 0.0
2018-Apr-11 01:01N 26°08' W 080°04'0 0.0
2018-Apr-11 00:30N 26°08' W 080°04'0 0.0
2018-Apr-11 00:00N 26°08' W 080°04'0 0.0
2018-Apr-10 23:30N 26°08' W 080°04'0 0.0
2018-Apr-10 23:00N 26°08' W 080°05'0 0.1
2018-Apr-10 22:29N 26°08' W 080°05'0 0.0
2018-Apr-10 21:59N 26°08' W 080°05'0 0.1
2018-Apr-10 21:29N 26°08' W 080°05'0 0.6
2018-Apr-10 20:59N 26°07' W 080°04'0 0.8
2018-Apr-10 20:29N 26°08' W 080°05'0 0.1
2018-Apr-10 19:59N 26°08' W 080°05'0 0.0
2018-Apr-10 19:29N 26°08' W 080°05'0 0.0
2018-Apr-10 18:58N 26°08' W 080°05'0 0.0
2018-Apr-10 18:28N 26°08' W 080°05'0 0.0
2018-Apr-10 17:58N 26°08' W 080°05'0 0.0
2018-Apr-10 17:28N 26°08' W 080°05'0 0.0
2018-Apr-10 16:58N 26°08' W 080°05'0 0.0
2018-Apr-10 16:30N 26°08' W 080°04'0 0.1
2018-Apr-10 16:00N 26°08' W 080°04'3 6.4
2018-Apr-10 15:31N 26°06' W 080°07'2 3.0
2018-Apr-10 14:59N 26°04' W 080°07'0 0.0
2018-Apr-10 14:29N 26°04' W 080°07'0 0.0
2018-Apr-10 13:59N 26°04' W 080°07'0 0.0
2018-Apr-10 13:29N 26°04' W 080°07'0 0.0
2018-Apr-10 12:58N 26°04' W 080°07'0 0.0
2018-Apr-10 12:28N 26°04' W 080°07'0 0.0
2018-Apr-10 11:58N 26°04' W 080°07'0 0.0
2018-Apr-10 11:28N 26°04' W 080°07'0 0.0
2018-Apr-10 11:01N 26°04' W 080°07'0 0.0
2018-Apr-10 10:30N 26°04' W 080°07'0 0.0
2018-Apr-10 10:00N 26°04' W 080°07'0 0.0
2018-Apr-10 09:30N 26°04' W 080°07'0 0.0
2018-Apr-10 09:00N 26°04' W 080°07'0 0.0
2018-Apr-10 08:29N 26°04' W 080°07'0 0.0
2018-Apr-10 07:59N 26°04' W 080°07'0 0.0
2018-Apr-10 07:29N 26°04' W 080°07'0 0.0
2018-Apr-10 06:59N 26°04' W 080°07'0 0.0
2018-Apr-10 06:29N 26°04' W 080°07'0 0.1
2018-Apr-10 05:58N 26°04' W 080°07'0 0.0
2018-Apr-10 05:28N 26°04' W 080°07'0 0.0
2018-Apr-10 04:58N 26°04' W 080°07'0 0.0
2018-Apr-10 04:28N 26°04' W 080°07'0 0.0
2018-Apr-10 04:01N 26°04' W 080°07'0 0.0
2018-Apr-10 03:30N 26°04' W 080°07'1 1.7
2018-Apr-10 03:00N 26°05' W 080°07'3 6.6
2018-Apr-10 02:30N 26°06' W 080°04'4 7.3
2018-Apr-10 02:00N 26°05' W 079°60'714.9
2018-Apr-10 01:30N 26°00' W 079°53'815.0
2018-Apr-10 01:00N 25°55' W 079°47'714.4
2018-Apr-10 00:30N 25°50' W 079°41'815.9
2018-Apr-10 00:00N 25°42' W 079°41'816.5
2018-Apr-09 23:30N 25°34' W 079°40'917.2
2018-Apr-09 23:00N 25°25' W 079°40'1018.7
2018-Apr-09 22:29N 25°16' W 079°39'  
2018-Apr-04 03:23N 25°21' W 079°40'615.5
2018-Apr-04 02:59N 25°27' W 079°40'715.3
2018-Apr-04 02:30N 25°34' W 079°40'815.2
2018-Apr-04 02:00N 25°42' W 079°41'713.9
2018-Apr-04 01:31N 25°49' W 079°42'713.5
2018-Apr-04 01:00N 25°54' W 079°46'714.0
2018-Apr-04 00:30N 25°59' W 079°52'714.2
2018-Apr-04 00:00N 26°02' W 079°59'612.7
2018-Apr-03 23:31N 26°06' W 080°05'2 4.2
2018-Apr-03 22:59N 26°04' W 080°07'0 0.0
2018-Apr-03 22:28N 26°04' W 080°07'0 0.0
2018-Apr-03 21:58N 26°04' W 080°07'0 0.0
2018-Apr-03 21:28N 26°04' W 080°07'0 0.0
2018-Apr-03 20:58N 26°04' W 080°07'0 0.0
2018-Apr-03 20:30N 26°04' W 080°07'0 0.0
2018-Apr-03 20:00N 26°04' W 080°07'0 0.0
2018-Apr-03 19:30N 26°04' W 080°07'0 0.0
2018-Apr-03 19:00N 26°04' W 080°07'0 0.0
2018-Apr-03 18:30N 26°04' W 080°07'0 0.0
2018-Apr-03 17:59N 26°04' W 080°07'0 0.0
2018-Apr-03 17:29N 26°04' W 080°07'0 0.0
2018-Apr-03 16:59N 26°04' W 080°07'0 0.0
2018-Apr-03 16:29N 26°04' W 080°07'0 0.0
2018-Apr-03 15:58N 26°04' W 080°07'0 0.0
2018-Apr-03 15:28N 26°04' W 080°07'0 0.0
2018-Apr-03 14:58N 26°04' W 080°07'0 0.0
2018-Apr-03 14:28N 26°04' W 080°07'0 0.0
2018-Apr-03 13:58N 26°04' W 080°07'0 0.0
2018-Apr-03 13:30N 26°04' W 080°07'0 0.0
2018-Apr-03 13:00N 26°04' W 080°07'0 0.0
2018-Apr-03 12:30N 26°04' W 080°07'0 0.0
2018-Apr-03 12:00N 26°04' W 080°07'0 0.0
2018-Apr-03 11:30N 26°04' W 080°07'0 0.0
2018-Apr-03 10:59N 26°04' W 080°07'0 0.0
2018-Apr-03 10:29N 26°04' W 080°07'0 0.0
2018-Apr-03 09:59N 26°04' W 080°07'0 0.0
2018-Apr-03 09:29N 26°04' W 080°07'0 0.0
2018-Apr-03 08:58N 26°04' W 080°07'0 0.0
2018-Apr-03 08:28N 26°04' W 080°07'0 0.0
2018-Apr-03 07:58N 26°04' W 080°07'0 0.0
2018-Apr-03 07:28N 26°04' W 080°07'0 0.0
2018-Apr-03 06:58N 26°04' W 080°07'0 0.0
2018-Apr-03 06:30N 26°04' W 080°07'0 0.0
2018-Apr-03 06:00N 26°04' W 080°07'0 0.0
2018-Apr-03 05:30N 26°04' W 080°07'0 0.0
2018-Apr-03 05:00N 26°04' W 080°07'0 0.0
2018-Apr-03 04:29N 26°04' W 080°07'0 0.0
2018-Apr-03 03:59N 26°04' W 080°07'0 0.0
2018-Apr-03 03:29N 26°04' W 080°07'0 0.0
2018-Apr-03 02:59N 26°04' W 080°07'0 0.2
2018-Apr-03 02:31N 26°04' W 080°07'2 5.0
2018-Apr-03 02:00N 26°06' W 080°05'4 8.4
2018-Apr-03 01:30N 26°05' W 079°60'5 9.4
2018-Apr-03 01:01N 26°02' W 079°56'815.8
2018-Apr-03 00:31N 25°57' W 079°49'815.5
2018-Apr-03 00:00N 25°52' W 079°43'815.2
2018-Apr-02 23:30N 25°45' W 079°41'816.1
2018-Apr-02 23:00N 25°37' W 079°41'816.1
2018-Apr-02 22:30N 25°28' W 079°40'  

Dump ship's entire track history